Time;durP1;ratioP1;P1;durP2;ratioP2;P2;SDS_P1;SDS_P2;PMS_P1;PMS_P2;Temp;Humidity;BMP_temperature;BMP_pressure;BME280_temperature;BME280_humidity;BME280_pressure;Samples;Min_cycle;Max_cycle;Signal;HPM_P1;HPM_P2
2022/07/21 00:00:27;;;;;;;0.30;0.30;;;20.40;99.90;;;;;;4936404;28;20063;-86
2022/07/21 00:02:57;;;;;;;0.30;0.30;;;20.40;99.90;;;;;;4944433;28;20054;-87
2022/07/21 00:05:29;;;;;;;0.30;0.30;;;20.60;99.90;;;;;;4956347;28;20084;-88
2022/07/21 00:07:55;;;;;;;0.30;0.30;;;20.60;99.90;;;;;;4954708;28;20078;-87
2022/07/21 00:10:33;;;;;;;0.20;0.20;;;20.60;99.90;;;;;;4946221;28;20137;-87
2022/07/21 00:13:21;;;;;;;0.20;0.20;;;20.60;99.90;;;;;;4954920;28;20934;-87
2022/07/21 00:15:53;;;;;;;0.20;0.20;;;20.80;99.90;;;;;;4949644;28;20327;-88
2022/07/21 00:18:28;;;;;;;0.30;0.30;;;20.70;99.90;;;;;;4944268;28;20067;-86
2022/07/21 00:20:59;;;;;;;0.20;0.20;;;20.70;99.90;;;;;;4962464;28;20100;-86
2022/07/21 00:27:09;;;;;;;0.20;0.20;;;20.50;99.90;;;;;;4951325;28;20037;-86
2022/07/21 00:29:55;;;;;;;0.20;0.20;;;20.60;99.90;;;;;;4952628;28;20158;-87
2022/07/21 00:32:21;;;;;;;0.30;0.30;;;20.50;99.90;;;;;;4944934;28;20574;-86
2022/07/21 00:34:53;;;;;;;0.30;0.30;;;20.50;99.90;;;;;;4958797;28;20055;-88
2022/07/21 00:37:19;;;;;;;0.30;0.30;;;20.50;99.90;;;;;;4947406;28;20136;-87
2022/07/21 00:40:07;;;;;;;0.30;0.30;;;20.50;99.90;;;;;;4956626;28;20663;-87
2022/07/21 00:42:46;;;;;;;0.20;0.20;;;20.70;99.90;;;;;;4980100;28;20058;-86
2022/07/21 00:45:12;;;;;;;0.30;0.30;;;20.50;99.90;;;;;;4930079;28;20050;-87
2022/07/21 00:47:42;;;;;;;0.20;0.20;;;20.60;99.90;;;;;;4946570;28;20046;-86
2022/07/21 00:50:21;;;;;;;0.30;0.30;;;20.60;99.90;;;;;;4959250;28;20061;-87
2022/07/21 00:52:48;;;;;;;0.30;0.30;;;20.60;99.90;;;;;;4947314;28;20090;-87
2022/07/21 00:55:26;;;;;;;0.28;0.28;;;20.50;99.90;;;;;;4951332;28;20064;-87
2022/07/21 00:57:56;;;;;;;0.55;0.55;;;20.20;99.90;;;;;;4947739;28;20292;-89
2022/07/21 01:00:37;;;;;;;0.30;0.30;;;20.00;99.90;;;;;;4952606;28;20951;-87
2022/07/21 01:03:13;;;;;;;0.20;0.20;;;19.90;99.90;;;;;;4965371;28;20212;-88
2022/07/21 01:05:45;;;;;;;0.30;0.30;;;19.70;99.90;;;;;;4972972;28;20050;-88
2022/07/21 01:08:22;;;;;;;0.20;0.20;;;19.70;99.90;;;;;;4946117;28;20128;-87
2022/07/21 01:10:51;;;;;;;0.20;0.20;;;19.60;99.90;;;;;;4958253;28;20054;-87
2022/07/21 01:13:17;;;;;;;0.20;0.20;;;19.70;99.90;;;;;;4968017;28;20078;-88
2022/07/21 01:15:58;;;;;;;0.20;0.20;;;19.60;99.90;;;;;;4946371;28;20459;-87
2022/07/21 01:18:47;;;;;;;0.20;0.20;;;19.70;99.90;;;;;;4953539;28;20049;-89
2022/07/21 01:21:57;;;;;;;0.30;0.30;;;19.60;99.90;;;;;;4915567;29;20066;-88
2022/07/21 01:24:26;;;;;;;0.20;0.20;;;19.60;99.90;;;;;;4970245;28;20119;-88
2022/07/21 01:27:14;;;;;;;0.30;0.30;;;19.70;99.90;;;;;;4943543;28;20057;-87
2022/07/21 01:29:50;;;;;;;0.30;0.30;;;19.80;99.90;;;;;;4937757;28;20054;-87
2022/07/21 01:32:16;;;;;;;0.30;0.30;;;20.00;99.90;;;;;;4959535;28;20054;-89
2022/07/21 01:34:45;;;;;;;0.20;0.20;;;20.00;99.90;;;;;;4937706;28;20420;-86
2022/07/21 01:37:49;;;;;;;0.28;0.28;;;20.00;99.90;;;;;;4973380;28;20054;-83
2022/07/21 01:43:15;;;;;;;0.20;0.20;;;19.80;99.90;;;;;;4957711;28;20568;-84
2022/07/21 01:45:40;;;;;;;0.30;0.30;;;19.50;99.90;;;;;;4941071;28;20696;-84
2022/07/21 01:48:12;;;;;;;0.30;0.30;;;19.70;99.90;;;;;;4956140;28;20942;-84
2022/07/21 01:50:49;;;;;;;0.20;0.20;;;19.50;99.90;;;;;;4937820;28;20049;-84
2022/07/21 01:53:15;;;;;;;0.30;0.30;;;19.70;99.90;;;;;;4976638;28;20042;-86
2022/07/21 01:55:41;;;;;;;0.30;0.30;;;19.50;99.90;;;;;;4953848;28;20054;-87
2022/07/21 01:58:10;;;;;;;0.30;0.30;;;19.40;99.90;;;;;;4915649;28;20050;-87
2022/07/21 02:00:36;;;;;;;0.30;0.30;;;19.40;99.90;;;;;;4937509;28;20134;-86
2022/07/21 02:03:04;;;;;;;0.30;0.30;;;19.30;99.90;;;;;;4937953;28;20129;-86
2022/07/21 02:05:36;;;;;;;0.20;0.20;;;19.50;99.90;;;;;;4948016;28;20059;-86
2022/07/21 02:08:10;;;;;;;0.30;0.30;;;19.70;99.90;;;;;;4944901;28;20110;-85
2022/07/21 02:10:42;;;;;;;0.30;0.30;;;19.80;99.90;;;;;;4964175;28;20136;-84
2022/07/21 02:13:19;;;;;;;0.30;0.30;;;19.70;99.90;;;;;;4959811;28;20104;-85
2022/07/21 02:15:44;;;;;;;0.30;0.30;;;19.70;99.90;;;;;;4939756;28;20089;-85
2022/07/21 02:18:10;;;;;;;0.30;0.30;;;19.80;99.90;;;;;;4957637;28;20129;-84
2022/07/21 02:20:39;;;;;;;0.30;0.30;;;19.80;99.90;;;;;;4957633;28;20108;-84
2022/07/21 02:23:08;;;;;;;0.30;0.30;;;19.80;99.90;;;;;;4944088;28;20055;-84
2022/07/21 02:25:37;;;;;;;0.30;0.30;;;19.80;99.90;;;;;;4970076;28;20077;-84
2022/07/21 02:28:10;;;;;;;0.30;0.30;;;19.90;99.90;;;;;;4956975;28;21268;-84
2022/07/21 02:30:37;;;;;;;0.30;0.30;;;20.00;99.90;;;;;;4955795;28;20054;-84
2022/07/21 02:33:06;;;;;;;0.30;0.30;;;20.00;99.90;;;;;;4955661;28;20054;-85
2022/07/21 02:35:32;;;;;;;0.28;0.28;;;20.00;99.90;;;;;;4960381;28;20050;-83
2022/07/21 02:38:01;;;;;;;0.30;0.30;;;20.10;99.90;;;;;;4963935;28;20042;-84
2022/07/21 02:40:36;;;;;;;0.28;0.28;;;19.90;99.90;;;;;;4965777;28;20061;-84
2022/07/21 02:43:08;;;;;;;0.30;0.30;;;20.00;99.90;;;;;;4966377;28;20066;-85
2022/07/21 02:45:37;;;;;;;0.30;0.30;;;20.00;99.90;;;;;;4951434;28;20588;-84
2022/07/21 02:48:14;;;;;;;0.40;0.40;;;20.00;99.90;;;;;;4951439;28;20058;-85
2022/07/21 02:50:44;;;;;;;0.30;0.30;;;19.90;99.90;;;;;;4947301;28;20371;-85
2022/07/21 02:53:23;;;;;;;0.30;0.30;;;19.80;99.90;;;;;;4947478;28;20050;-85
2022/07/21 02:55:53;;;;;;;0.30;0.30;;;19.90;99.90;;;;;;4977882;28;20061;-85
2022/07/21 02:58:19;;;;;;;0.22;0.22;;;19.90;99.90;;;;;;4966033;28;20053;-85
2022/07/21 03:01:14;;;;;;;0.20;0.20;;;19.80;99.90;;;;;;4964758;28;20046;-85
2022/07/21 03:03:43;;;;;;;0.30;0.30;;;19.90;99.90;;;;;;4967621;28;20042;-84
2022/07/21 03:06:15;;;;;;;0.30;0.30;;;19.80;99.90;;;;;;4966841;28;20050;-85
2022/07/21 03:08:44;;;;;;;0.35;0.35;;;19.80;99.90;;;;;;4950723;28;20050;-85
2022/07/21 03:11:16;;;;;;;0.30;0.30;;;19.80;99.90;;;;;;4964144;28;20273;-85
2022/07/21 03:13:50;;;;;;;0.30;0.30;;;19.80;99.90;;;;;;4966682;28;20050;-85
2022/07/21 03:16:22;;;;;;;0.30;0.30;;;19.70;99.90;;;;;;4963575;28;20759;-84
2022/07/21 03:18:48;;;;;;;0.30;0.30;;;19.70;99.90;;;;;;4964165;28;20089;-85
2022/07/21 03:21:14;;;;;;;0.35;0.35;;;19.70;99.90;;;;;;4937026;28;20081;-85
2022/07/21 03:23:45;;;;;;;0.30;0.30;;;19.70;99.90;;;;;;4965497;28;20105;-85
2022/07/21 03:26:18;;;;;;;0.20;0.20;;;19.70;99.90;;;;;;4980581;28;20051;-85
2022/07/21 03:28:44;;;;;;;0.30;0.30;;;19.70;99.90;;;;;;4968051;28;20039;-85
2022/07/21 03:31:10;;;;;;;0.30;0.30;;;19.70;99.90;;;;;;4967066;28;20064;-84
2022/07/21 03:33:36;;;;;;;0.35;0.35;;;19.70;99.90;;;;;;4970409;28;20057;-86
2022/07/21 03:36:08;;;;;;;0.30;0.30;;;19.50;99.90;;;;;;4947858;28;20051;-85
2022/07/21 03:38:58;;;;;;;0.30;0.30;;;19.60;99.90;;;;;;4967858;28;20140;-86
2022/07/21 03:41:37;;;;;;;0.30;0.30;;;19.60;99.90;;;;;;4968135;28;20043;-85
2022/07/21 03:44:03;;;;;;;0.30;0.30;;;19.70;99.90;;;;;;4951624;28;20133;-85
2022/07/21 03:46:41;;;;;;;0.30;0.30;;;19.70;99.90;;;;;;4964457;28;20053;-86
2022/07/21 03:49:06;;;;;;;0.30;0.30;;;19.70;99.90;;;;;;4964350;28;20069;-86
2022/07/21 03:51:32;;;;;;;0.30;0.30;;;19.60;99.90;;;;;;4933002;28;20138;-87
2022/07/21 03:53:59;;;;;;;0.30;0.30;;;19.60;99.90;;;;;;4959535;28;20042;-85
2022/07/21 03:56:32;;;;;;;0.30;0.30;;;19.60;99.90;;;;;;4952721;28;20046;-86
2022/07/21 03:59:10;;;;;;;0.30;0.30;;;19.70;99.90;;;;;;4948834;28;20054;-86
2022/07/21 04:01:36;;;;;;;0.30;0.30;;;19.70;99.90;;;;;;4945705;28;20125;-87
2022/07/21 04:04:04;;;;;;;0.30;0.30;;;19.60;99.90;;;;;;4950186;28;20050;-87
2022/07/21 04:06:30;;;;;;;0.30;0.30;;;19.60;99.90;;;;;;4960845;28;20046;-86
2022/07/21 04:09:18;;;;;;;0.40;0.40;;;19.50;99.90;;;;;;4944707;28;20058;-89
2022/07/21 04:11:50;;;;;;;0.30;0.30;;;19.50;99.90;;;;;;4959051;28;20107;-86
2022/07/21 04:14:16;;;;;;;0.30;0.30;;;19.70;99.90;;;;;;4961806;28;20046;-87
2022/07/21 04:16:49;;;;;;;0.30;0.30;;;19.60;99.90;;;;;;4932983;28;20042;-87
2022/07/21 04:19:15;;;;;;;0.30;0.30;;;19.60;99.90;;;;;;4947025;28;20464;-88
2022/07/21 04:21:53;;;;;;;0.30;0.30;;;19.50;99.90;;;;;;4948872;28;20806;-88
2022/07/21 04:24:22;;;;;;;0.30;0.30;;;19.50;99.90;;;;;;4951801;28;20094;-87
2022/07/21 04:26:54;;;;;;;0.30;0.30;;;19.60;99.90;;;;;;4951084;28;20054;-87
2022/07/21 04:29:19;;;;;;;0.30;0.30;;;19.50;99.90;;;;;;4937408;28;20038;-86
2022/07/21 04:31:48;;;;;;;0.30;0.30;;;19.50;99.90;;;;;;4926820;28;20192;-87
2022/07/21 04:34:20;;;;;;;0.30;0.30;;;19.60;99.90;;;;;;4953313;28;20100;-88
2022/07/21 04:37:10;;;;;;;0.30;0.30;;;19.60;99.90;;;;;;4936544;28;20051;-90
2022/07/21 04:39:35;;;;;;;0.30;0.30;;;19.60;99.90;;;;;;4949193;28;20125;-88
2022/07/21 04:42:01;;;;;;;0.30;0.30;;;19.60;99.90;;;;;;4923675;28;20413;-91
2022/07/21 04:44:27;;;;;;;0.30;0.30;;;19.50;99.90;;;;;;4942627;28;20065;-89
2022/07/21 04:46:53;;;;;;;0.30;0.30;;;19.50;99.90;;;;;;4948620;28;20051;-89
2022/07/21 04:49:19;;;;;;;0.30;0.30;;;19.40;99.90;;;;;;4942180;28;20068;-89
2022/07/21 04:51:45;;;;;;;0.30;0.30;;;19.60;99.90;;;;;;4930321;28;20054;-88
2022/07/21 04:54:14;;;;;;;0.30;0.30;;;19.60;99.90;;;;;;4928638;28;21125;-89
2022/07/21 04:56:43;;;;;;;0.30;0.30;;;19.60;99.90;;;;;;4924569;28;20050;-87
2022/07/21 04:59:09;;;;;;;0.30;0.30;;;19.60;99.90;;;;;;4952633;28;20073;-89
2022/07/21 05:01:36;;;;;;;0.30;0.30;;;19.60;99.90;;;;;;4934514;28;21566;-87
2022/07/21 05:04:02;;;;;;;0.40;0.40;;;19.50;99.90;;;;;;4953946;28;20401;-90
2022/07/21 05:06:28;;;;;;;0.30;0.30;;;19.50;99.90;;;;;;4921869;28;20046;-88
2022/07/21 05:08:53;;;;;;;0.40;0.40;;;19.50;99.90;;;;;;4931555;28;20238;-86
2022/07/21 05:11:19;;;;;;;0.32;0.32;;;19.50;99.90;;;;;;4937170;28;20058;-88
2022/07/21 05:13:45;;;;;;;0.30;0.30;;;19.60;99.90;;;;;;4933454;28;20039;-88
2022/07/21 05:16:11;;;;;;;0.30;0.30;;;19.50;99.90;;;;;;4954210;28;20061;-88
2022/07/21 05:18:37;;;;;;;0.57;0.30;;;19.50;99.90;;;;;;4959169;28;20047;-88
2022/07/21 05:21:03;;;;;;;0.20;0.20;;;19.60;99.90;;;;;;4948451;28;20047;-90
2022/07/21 05:23:29;;;;;;;0.30;0.30;;;19.70;99.90;;;;;;4940323;28;20077;-89
2022/07/21 05:25:54;;;;;;;0.20;0.20;;;19.80;99.90;;;;;;4957315;28;20134;-86
2022/07/21 05:28:20;;;;;;;0.40;0.35;;;19.90;99.90;;;;;;4934659;28;20161;-88
2022/07/21 05:30:46;;;;;;;0.30;0.30;;;19.90;99.90;;;;;;4948703;28;20046;-91
2022/07/21 05:33:12;;;;;;;0.30;0.30;;;19.80;99.90;;;;;;4928903;28;20612;-90
2022/07/21 05:35:38;;;;;;;0.30;0.30;;;19.90;99.90;;;;;;4944310;28;20046;-88
2022/07/21 05:38:04;;;;;;;0.30;0.30;;;20.00;99.90;;;;;;4937989;28;20797;-89
2022/07/21 05:40:30;;;;;;;0.30;0.30;;;20.00;99.90;;;;;;4944144;28;20744;-88
2022/07/21 05:42:55;;;;;;;0.30;0.30;;;20.10;99.90;;;;;;4949045;28;20062;-89
2022/07/21 05:45:21;;;;;;;0.30;0.30;;;20.10;99.90;;;;;;4946513;28;20057;-87
2022/07/21 05:47:47;;;;;;;0.30;0.30;;;20.00;99.90;;;;;;4948060;28;20058;-87
2022/07/21 05:50:13;;;;;;;0.30;0.30;;;20.10;99.90;;;;;;4947995;28;20057;-87
2022/07/21 05:52:39;;;;;;;0.30;0.30;;;19.90;99.90;;;;;;4945761;28;20038;-84
2022/07/21 05:55:06;;;;;;;0.20;0.20;;;20.00;99.90;;;;;;4960341;28;20057;-87
2022/07/21 05:57:32;;;;;;;0.30;0.30;;;19.80;99.90;;;;;;4947161;28;20064;-88
2022/07/21 05:59:58;;;;;;;0.20;0.20;;;19.70;99.90;;;;;;4954050;28;20168;-85
2022/07/21 06:02:25;;;;;;;0.30;0.30;;;19.70;99.90;;;;;;4963191;28;20100;-89
2022/07/21 06:04:51;;;;;;;0.30;0.30;;;19.70;99.90;;;;;;4927149;28;20846;-86
2022/07/21 06:07:17;;;;;;;0.30;0.30;;;19.80;99.90;;;;;;4943964;28;20054;-87
2022/07/21 06:09:43;;;;;;;0.30;0.30;;;19.90;99.90;;;;;;4970568;28;20703;-86
2022/07/21 06:12:09;;;;;;;0.22;0.22;;;19.90;99.90;;;;;;4925556;28;20083;-88
2022/07/21 06:14:35;;;;;;;0.30;0.30;;;20.00;99.90;;;;;;4958699;28;20054;-88
2022/07/21 06:17:01;;;;;;;0.30;0.30;;;19.90;99.90;;;;;;4923930;28;20047;-85
2022/07/21 06:19:27;;;;;;;0.30;0.30;;;19.80;99.90;;;;;;4972893;28;20054;-85
2022/07/21 06:21:53;;;;;;;0.30;0.30;;;19.70;99.90;;;;;;4946673;28;20045;-87
2022/07/21 06:24:21;;;;;;;0.30;0.30;;;19.60;99.90;;;;;;4926570;28;20050;-87
2022/07/21 06:26:48;;;;;;;0.40;0.40;;;19.70;99.90;;;;;;4942490;28;20054;-88
2022/07/21 06:29:14;;;;;;;0.32;0.32;;;19.70;99.90;;;;;;4944237;28;20061;-88
2022/07/21 06:31:39;;;;;;;0.20;0.20;;;19.80;99.90;;;;;;4936711;28;20061;-87
2022/07/21 06:34:05;;;;;;;0.30;0.30;;;19.90;99.90;;;;;;4953561;28;20050;-87
2022/07/21 06:36:31;;;;;;;0.30;0.30;;;19.90;99.90;;;;;;4911210;28;20089;-88
2022/07/21 06:38:57;;;;;;;0.30;0.30;;;19.90;99.90;;;;;;4942374;28;20048;-86
2022/07/21 06:41:23;;;;;;;0.50;0.50;;;20.00;99.90;;;;;;4954863;28;20046;-88
2022/07/21 06:43:49;;;;;;;0.30;0.30;;;20.20;99.90;;;;;;4933146;28;20081;-88
2022/07/21 06:46:15;;;;;;;0.20;0.20;;;20.30;99.90;;;;;;4944884;28;20780;-86
2022/07/21 06:48:41;;;;;;;0.30;0.30;;;20.30;99.90;;;;;;4925394;28;20066;-87
2022/07/21 06:51:07;;;;;;;0.22;0.22;;;20.40;99.90;;;;;;4950737;28;20072;-85
2022/07/21 06:53:33;;;;;;;0.30;0.30;;;20.50;99.90;;;;;;4938854;28;20104;-88
2022/07/21 06:55:58;;;;;;;0.20;0.20;;;20.50;99.90;;;;;;4935838;28;20050;-86
2022/07/21 06:58:24;;;;;;;0.30;0.30;;;20.40;99.90;;;;;;4938414;28;20051;-85
2022/07/21 07:00:51;;;;;;;0.25;0.25;;;20.50;99.90;;;;;;4939521;28;20418;-86
2022/07/21 07:03:18;;;;;;;0.30;0.30;;;20.70;99.90;;;;;;4956010;28;20643;-83
2022/07/21 07:05:45;;;;;;;0.30;0.30;;;21.00;99.90;;;;;;4927049;28;20034;-83
2022/07/21 07:08:11;;;;;;;0.30;0.30;;;21.20;99.90;;;;;;4936296;28;20042;-84
2022/07/21 07:10:38;;;;;;;0.30;0.30;;;21.10;99.90;;;;;;4955416;28;20047;-88
2022/07/21 07:13:04;;;;;;;0.30;0.30;;;21.00;99.90;;;;;;4938450;28;20043;-87
2022/07/21 07:15:29;;;;;;;0.30;0.30;;;20.80;99.90;;;;;;4937295;28;20057;-85
2022/07/21 07:17:56;;;;;;;0.20;0.20;;;20.80;99.90;;;;;;4954037;28;20051;-83
2022/07/21 07:20:22;;;;;;;0.35;0.35;;;20.80;99.90;;;;;;4950061;28;20054;-86
2022/07/21 07:22:48;;;;;;;0.30;0.30;;;21.00;99.90;;;;;;4940625;28;20051;-84
2022/07/21 07:25:17;;;;;;;0.20;0.20;;;21.20;99.90;;;;;;4920432;28;20039;-86
2022/07/21 07:27:49;;;;;;;0.80;0.30;;;21.20;99.90;;;;;;4944138;28;20051;-86
2022/07/21 07:30:18;;;;;;;0.30;0.30;;;21.60;99.90;;;;;;4956455;28;20055;-87
2022/07/21 07:32:44;;;;;;;0.30;0.30;;;22.10;99.90;;;;;;4937029;28;20691;-87
2022/07/21 07:35:12;;;;;;;0.20;0.20;;;22.40;99.90;;;;;;4952683;28;20208;-85
2022/07/21 07:37:39;;;;;;;0.20;0.20;;;22.40;99.90;;;;;;4956217;28;20623;-85
2022/07/21 07:40:08;;;;;;;0.30;0.30;;;22.20;99.90;;;;;;4940432;28;20057;-86
2022/07/21 07:42:35;;;;;;;0.28;0.28;;;21.90;99.90;;;;;;4941833;28;20587;-85
2022/07/21 07:45:01;;;;;;;0.28;0.28;;;22.00;99.90;;;;;;4938047;28;20505;-85
2022/07/21 07:47:27;;;;;;;0.20;0.20;;;22.40;99.90;;;;;;4951066;28;20070;-88
2022/07/21 07:49:53;;;;;;;0.30;0.30;;;22.80;99.90;;;;;;4939266;28;20628;-90
2022/07/21 07:52:22;;;;;;;0.22;0.22;;;22.70;99.90;;;;;;4938214;28;20132;-95
2022/07/21 07:54:48;;;;;;;0.20;0.20;;;22.30;99.90;;;;;;4955430;28;20058;-88
2022/07/21 07:57:14;;;;;;;0.20;0.20;;;22.00;99.90;;;;;;4953560;28;20053;-87
2022/07/21 07:59:40;;;;;;;0.32;0.32;;;21.70;99.90;;;;;;4923090;28;20058;-88
2022/07/21 08:02:06;;;;;;;0.30;0.30;;;21.70;99.90;;;;;;4939824;28;20572;-88
2022/07/21 08:04:32;;;;;;;0.20;0.20;;;21.80;99.90;;;;;;4954622;28;20401;-86
2022/07/21 08:06:58;;;;;;;0.30;0.30;;;22.30;99.90;;;;;;4914903;28;20484;-85
2022/07/21 08:09:23;;;;;;;0.30;0.30;;;22.50;99.90;;;;;;4931040;28;20053;-88
2022/07/21 08:11:50;;;;;;;0.20;0.20;;;22.00;99.90;;;;;;4938929;28;20055;-86
2022/07/21 08:14:17;;;;;;;0.30;0.30;;;22.40;99.90;;;;;;4966291;28;20053;-87
2022/07/21 08:16:43;;;;;;;0.20;0.20;;;22.80;99.90;;;;;;4956896;28;20045;-85
2022/07/21 08:19:09;;;;;;;0.30;0.30;;;23.10;99.90;;;;;;4955786;28;20444;-87
2022/07/21 08:21:35;;;;;;;0.30;0.30;;;23.50;99.90;;;;;;4958936;28;20177;-88
2022/07/21 08:24:02;;;;;;;0.20;0.20;;;23.10;99.90;;;;;;4948163;28;20046;-89
2022/07/21 08:26:28;;;;;;;0.30;0.30;;;22.90;99.90;;;;;;4948423;28;20485;-87
2022/07/21 08:28:55;;;;;;;0.28;0.28;;;23.00;99.90;;;;;;4949498;28;20065;-87
2022/07/21 08:31:22;;;;;;;0.20;0.20;;;22.90;99.90;;;;;;4955927;28;20059;-85
2022/07/21 08:33:48;;;;;;;0.20;0.20;;;22.80;99.90;;;;;;4954705;28;20159;-86
2022/07/21 08:36:14;;;;;;;0.20;0.20;;;22.80;99.90;;;;;;4958868;28;20046;-89
2022/07/21 08:38:39;;;;;;;0.20;0.20;;;22.90;99.90;;;;;;4944559;28;20096;-87
2022/07/21 08:41:09;;;;;;;0.30;0.30;;;23.10;99.90;;;;;;4957102;28;20046;-84
2022/07/21 08:43:35;;;;;;;0.20;0.20;;;23.70;99.90;;;;;;4974018;28;20066;-84
2022/07/21 08:46:01;;;;;;;0.20;0.20;;;23.30;99.90;;;;;;4953851;28;20058;-86
2022/07/21 08:48:29;;;;;;;0.20;0.20;;;23.40;99.90;;;;;;4955575;28;20074;-87
2022/07/21 08:50:55;;;;;;;0.45;0.25;;;23.80;99.90;;;;;;4955286;28;20398;-84
2022/07/21 08:53:24;;;;;;;0.30;0.30;;;24.10;99.90;;;;;;4972976;28;20793;-90
2022/07/21 08:55:50;;;;;;;0.20;0.20;;;24.40;99.90;;;;;;4940882;28;20054;-84
2022/07/21 08:58:16;;;;;;;0.20;0.20;;;24.60;99.90;;;;;;4955312;28;20078;-87
2022/07/21 09:00:45;;;;;;;0.20;0.20;;;25.00;99.90;;;;;;4935377;28;20140;-86
2022/07/21 09:03:18;;;;;;;0.32;0.25;;;25.20;99.90;;;;;;4942146;28;20104;-87
2022/07/21 09:06:11;;;;;;;0.20;0.20;;;25.30;99.90;;;;;;4957157;28;20173;-89
2022/07/21 09:08:42;;;;;;;0.20;0.20;;;25.40;99.90;;;;;;4935597;28;20861;-84
2022/07/21 09:11:25;;;;;;;0.30;0.30;;;25.40;99.90;;;;;;4942536;28;20141;-84
2022/07/21 09:14:18;;;;;;;0.20;0.20;;;25.60;99.90;;;;;;4955684;28;20050;-87
2022/07/21 09:16:53;;;;;;;0.30;0.30;;;26.10;99.90;;;;;;4960538;28;20054;-87
2022/07/21 09:19:20;;;;;;;0.30;0.30;;;25.40;99.90;;;;;;4949981;28;20055;-84
2022/07/21 09:21:47;;;;;;;0.20;0.20;;;25.40;99.90;;;;;;4939636;28;20051;-87
2022/07/21 09:24:28;;;;;;;0.30;0.30;;;25.40;99.90;;;;;;4949184;28;20404;-84
2022/07/21 09:27:00;;;;;;;0.20;0.20;;;24.80;99.90;;;;;;4955714;28;20178;-83
2022/07/21 09:29:26;;;;;;;0.20;0.20;;;25.00;99.90;;;;;;4952576;28;20046;-87
2022/07/21 09:31:52;;;;;;;0.30;0.30;;;24.60;99.90;;;;;;4954259;28;20042;-86
2022/07/21 09:34:20;;;;;;;0.20;0.20;;;24.40;99.90;;;;;;4951881;28;20424;-85
2022/07/21 09:36:57;;;;;;;0.25;0.25;;;24.00;99.90;;;;;;4955855;28;20464;-84
2022/07/21 09:39:50;;;;;;;0.20;0.20;;;23.40;99.90;;;;;;4954414;28;20051;-83
2022/07/21 09:42:30;;;;;;;0.25;0.25;;;23.20;99.90;;;;;;4936514;28;20057;-83
2022/07/21 09:45:02;;;;;;;0.20;0.20;;;22.90;99.90;;;;;;4955062;28;20054;-83
2022/07/21 09:47:30;;;;;;;0.20;0.20;;;22.40;99.90;;;;;;4952791;28;20053;-85
2022/07/21 09:49:57;;;;;;;0.30;0.30;;;22.10;99.90;;;;;;4956125;28;20057;-87
2022/07/21 09:52:29;;;;;;;0.20;0.20;;;22.00;99.90;;;;;;4966431;28;20816;-90
2022/07/21 09:54:57;;;;;;;0.20;0.20;;;22.00;99.90;;;;;;4954715;28;21082;-88
2022/07/21 09:57:23;;;;;;;0.30;0.30;;;21.90;99.90;;;;;;4954742;28;20130;-88
2022/07/21 09:59:50;;;;;;;0.30;0.30;;;21.80;99.90;;;;;;4939143;28;20054;-84
2022/07/21 10:02:19;;;;;;;0.40;0.40;;;21.70;99.90;;;;;;4953348;28;20380;-86
2022/07/21 10:04:48;;;;;;;0.50;0.50;;;21.90;99.90;;;;;;4954209;28;20125;-85
2022/07/21 10:07:15;;;;;;;0.20;0.20;;;21.90;99.90;;;;;;4959537;28;20082;-90
2022/07/21 10:09:43;;;;;;;0.30;0.30;;;21.90;99.90;;;;;;4954480;28;20057;-88
2022/07/21 10:12:09;;;;;;;0.43;0.43;;;22.00;99.90;;;;;;4952827;28;20076;-85
2022/07/21 10:14:36;;;;;;;0.20;0.20;;;22.10;99.90;;;;;;4951815;28;20066;-87
2022/07/21 10:17:02;;;;;;;0.30;0.30;;;22.30;99.90;;;;;;4968580;28;20055;-84
2022/07/21 10:19:34;;;;;;;0.30;0.30;;;22.50;99.90;;;;;;4953130;28;20050;-84
2022/07/21 10:22:21;;;;;;;0.30;0.30;;;22.70;99.90;;;;;;4956626;28;20046;-83
2022/07/21 10:24:47;;;;;;;0.30;0.30;;;23.10;99.90;;;;;;4953969;28;20043;-83
2022/07/21 10:27:14;;;;;;;0.20;0.20;;;23.10;99.90;;;;;;4944600;28;20046;-84
2022/07/21 10:29:55;;;;;;;0.30;0.30;;;22.90;99.90;;;;;;4944531;28;20780;-89
2022/07/21 10:32:30;;;;;;;0.20;0.20;;;23.30;99.90;;;;;;4943905;28;20112;-83
2022/07/21 10:34:58;;;;;;;0.20;0.20;;;23.50;99.90;;;;;;4948380;28;20065;-85
2022/07/21 10:37:39;;;;;;;0.20;0.20;;;23.50;99.90;;;;;;4947731;28;20097;-85
2022/07/21 10:40:25;;;;;;;0.20;0.20;;;23.50;99.90;;;;;;4945546;28;20055;-84
2022/07/21 10:43:01;;;;;;;0.38;0.38;;;24.20;99.90;;;;;;4935782;28;20881;-83
2022/07/21 10:45:37;;;;;;;0.30;0.30;;;24.30;99.90;;;;;;4932362;28;20050;-84
2022/07/21 10:48:27;;;;;;;0.30;0.30;;;24.40;99.90;;;;;;4948093;28;20064;-87
2022/07/21 10:50:58;;;;;;;0.30;0.30;;;24.80;99.90;;;;;;4935578;28;20097;-83
2022/07/21 10:53:23;;;;;;;0.20;0.20;;;24.80;99.90;;;;;;4963959;28;20042;-81
2022/07/21 10:55:54;;;;;;;2.92;0.60;;;24.60;99.90;;;;;;4961053;28;20112;-85
2022/07/21 10:58:25;;;;;;;0.30;0.30;;;24.70;99.90;;;;;;4948116;28;20065;-85
2022/07/21 11:00:55;;;;;;;0.20;0.20;;;24.40;99.90;;;;;;4955764;28;20054;-84
2022/07/21 11:03:21;;;;;;;0.20;0.20;;;24.20;99.90;;;;;;4931577;28;20046;-82
2022/07/21 11:06:06;;;;;;;0.50;0.45;;;24.20;99.90;;;;;;4934574;28;20058;-86
2022/07/21 11:08:36;;;;;;;0.30;0.30;;;24.10;99.90;;;;;;4945792;28;20184;-85
2022/07/21 11:11:27;;;;;;;0.30;0.30;;;23.70;99.90;;;;;;4940935;28;20061;-85
2022/07/21 11:14:03;;;;;;;0.30;0.30;;;23.40;99.90;;;;;;4946298;28;20100;-83
2022/07/21 11:16:41;;;;;;;0.25;0.25;;;23.40;99.90;;;;;;4926645;28;20250;-84
2022/07/21 11:19:29;;;;;;;0.30;0.30;;;23.20;99.90;;;;;;4941497;28;20794;-81
2022/07/21 11:21:57;;;;;;;0.30;0.30;;;23.10;99.90;;;;;;4945412;28;20161;-85
2022/07/21 11:24:25;;;;;;;0.30;0.30;;;23.10;99.90;;;;;;4961158;28;20524;-85
2022/07/21 11:26:55;;;;;;;0.30;0.30;;;23.20;99.90;;;;;;4923429;28;20054;-84
2022/07/21 11:29:21;;;;;;;0.20;0.20;;;23.50;99.90;;;;;;4940320;28;20093;-82
2022/07/21 11:31:48;;;;;;;0.32;0.32;;;23.50;99.90;;;;;;4946423;28;20169;-82
2022/07/21 11:34:13;;;;;;;0.30;0.30;;;23.80;99.90;;;;;;4960317;28;20570;-82
2022/07/21 11:36:39;;;;;;;0.28;0.28;;;23.80;99.90;;;;;;4966779;28;20046;-83
2022/07/21 11:39:12;;;;;;;0.20;0.20;;;23.70;99.90;;;;;;4945694;28;20109;-81
2022/07/21 11:41:40;;;;;;;0.32;0.32;;;23.80;99.90;;;;;;4944786;28;20046;-82
2022/07/21 11:44:07;;;;;;;0.30;0.30;;;23.90;99.90;;;;;;4915899;28;20841;-83
2022/07/21 11:46:48;;;;;;;0.30;0.30;;;23.90;99.90;;;;;;4939957;28;20058;-82
2022/07/21 11:49:15;;;;;;;0.30;0.30;;;23.90;99.90;;;;;;4956744;28;20049;-85
2022/07/21 11:51:56;;;;;;;0.25;0.25;;;23.50;99.90;;;;;;4942252;28;20105;-87
2022/07/21 11:54:25;;;;;;;0.30;0.30;;;23.40;99.90;;;;;;4945256;28;20178;-83
2022/07/21 11:56:52;;;;;;;0.20;0.20;;;23.70;99.90;;;;;;4940339;28;20046;-86
2022/07/21 11:59:18;;;;;;;0.30;0.30;;;23.90;99.90;;;;;;4939453;28;20046;-83
2022/07/21 12:02:01;;;;;;;0.30;0.30;;;24.00;99.90;;;;;;4941134;28;20050;-82
2022/07/21 12:04:42;;;;;;;0.30;0.30;;;24.20;99.90;;;;;;4938686;28;20209;-83
2022/07/21 12:07:39;;;;;;;0.30;0.30;;;24.10;99.90;;;;;;4946046;28;20058;-85
2022/07/21 12:10:11;;;;;;;0.30;0.30;;;24.10;99.90;;;;;;4963952;28;20240;-87
2022/07/21 12:12:48;;;;;;;0.30;0.30;;;24.10;99.90;;;;;;4953911;28;20546;-86
2022/07/21 12:15:23;;;;;;;0.30;0.30;;;24.20;99.90;;;;;;4945272;28;20130;-84
2022/07/21 12:17:50;;;;;;;0.20;0.20;;;24.30;99.90;;;;;;4931998;28;20055;-83
2022/07/21 12:20:24;;;;;;;0.25;0.25;;;24.50;99.90;;;;;;4937329;28;20056;-84
2022/07/21 12:22:50;;;;;;;0.20;0.20;;;24.20;99.90;;;;;;4935871;28;20050;-83
2022/07/21 12:25:18;;;;;;;0.20;0.20;;;24.10;99.90;;;;;;4942729;28;20046;-83
2022/07/21 12:27:45;;;;;;;0.30;0.30;;;23.90;99.90;;;;;;4943490;28;20897;-85
2022/07/21 12:30:39;;;;;;;0.30;0.30;;;23.60;99.90;;;;;;4941470;28;20062;-81
2022/07/21 12:33:14;;;;;;;0.30;0.30;;;23.50;99.90;;;;;;4933958;28;20058;-84
2022/07/21 12:35:43;;;;;;;0.43;0.38;;;23.40;99.90;;;;;;4947832;28;20054;-85
2022/07/21 12:38:14;;;;;;;0.30;0.30;;;23.30;99.90;;;;;;4942108;28;20046;-84
2022/07/21 12:40:44;;;;;;;0.30;0.30;;;23.20;99.90;;;;;;4943717;28;20058;-82
2022/07/21 12:43:16;;;;;;;0.30;0.30;;;22.90;99.90;;;;;;4948843;28;20202;-84
2022/07/21 12:45:58;;;;;;;0.28;0.28;;;22.90;99.90;;;;;;4936765;28;20059;-86
2022/07/21 12:48:38;;;;;;;0.30;0.30;;;22.80;99.90;;;;;;4935095;28;20150;-83
2022/07/21 12:51:11;;;;;;;0.30;0.30;;;22.80;99.90;;;;;;4945772;28;20116;-85
2022/07/21 12:53:40;;;;;;;;;;;22.80;99.90;;;;;;4937242;28;20159;-82
2022/07/21 12:56:07;;;;;;;0.30;0.30;;;22.60;99.90;;;;;;4948370;28;19941;-83
2022/07/21 12:58:33;;;;;;;0.20;0.20;;;22.70;99.90;;;;;;4942342;28;20565;-83
2022/07/21 13:00:59;;;;;;;0.40;0.40;;;22.60;99.90;;;;;;4939431;28;20876;-83
2022/07/21 13:03:29;;;;;;;0.20;0.20;;;22.50;99.90;;;;;;4941323;28;20051;-83
2022/07/21 13:05:54;;;;;;;1.13;0.40;;;22.40;99.90;;;;;;4943279;28;20675;-84
2022/07/21 13:08:20;;;;;;;0.22;0.22;;;22.30;99.90;;;;;;4942750;28;20051;-84
2022/07/21 13:10:46;;;;;;;0.43;0.43;;;22.30;99.90;;;;;;4950451;28;20049;-82